sensor_id;sensor_type;location;lat;lon;timestamp;temperature;humidity
17080;DHT22;8655;57.106;-2.088;2023-04-06T00:01:36;17.90;46.20
17080;DHT22;8655;57.106;-2.088;2023-04-06T00:04:02;17.90;46.20
17080;DHT22;8655;57.106;-2.088;2023-04-06T00:06:28;17.90;46.20
17080;DHT22;8655;57.106;-2.088;2023-04-06T00:08:54;17.90;46.20
17080;DHT22;8655;57.106;-2.088;2023-04-06T00:11:19;17.90;46.30
17080;DHT22;8655;57.106;-2.088;2023-04-06T00:13:45;17.90;46.20
17080;DHT22;8655;57.106;-2.088;2023-04-06T00:16:11;17.90;46.20
17080;DHT22;8655;57.106;-2.088;2023-04-06T00:18:36;17.90;46.20
17080;DHT22;8655;57.106;-2.088;2023-04-06T00:21:03;17.90;46.20
17080;DHT22;8655;57.106;-2.088;2023-04-06T00:23:29;17.90;46.20
17080;DHT22;8655;57.106;-2.088;2023-04-06T00:25:54;17.90;46.20
17080;DHT22;8655;57.106;-2.088;2023-04-06T00:28:21;17.90;46.20
17080;DHT22;8655;57.106;-2.088;2023-04-06T00:30:51;17.90;46.20
17080;DHT22;8655;57.106;-2.088;2023-04-06T00:33:21;17.80;46.20
17080;DHT22;8655;57.106;-2.088;2023-04-06T00:35:47;17.80;46.20
17080;DHT22;8655;57.106;-2.088;2023-04-06T00:38:14;17.80;46.10
17080;DHT22;8655;57.106;-2.088;2023-04-06T00:40:40;17.80;46.10
17080;DHT22;8655;57.106;-2.088;2023-04-06T00:43:06;17.80;46.10
17080;DHT22;8655;57.106;-2.088;2023-04-06T00:45:34;17.80;46.70
17080;DHT22;8655;57.106;-2.088;2023-04-06T00:48:00;17.80;46.10
17080;DHT22;8655;57.106;-2.088;2023-04-06T00:50:27;17.80;46.10
17080;DHT22;8655;57.106;-2.088;2023-04-06T00:52:53;17.80;46.10
17080;DHT22;8655;57.106;-2.088;2023-04-06T00:55:20;17.80;46.20
17080;DHT22;8655;57.106;-2.088;2023-04-06T00:57:45;17.80;46.20
17080;DHT22;8655;57.106;-2.088;2023-04-06T01:00:12;17.80;46.20
17080;DHT22;8655;57.106;-2.088;2023-04-06T01:02:38;17.80;46.20
17080;DHT22;8655;57.106;-2.088;2023-04-06T01:05:04;17.80;46.20
17080;DHT22;8655;57.106;-2.088;2023-04-06T01:07:30;17.80;46.20
17080;DHT22;8655;57.106;-2.088;2023-04-06T01:09:55;17.80;46.20
17080;DHT22;8655;57.106;-2.088;2023-04-06T01:12:21;17.80;46.20
17080;DHT22;8655;57.106;-2.088;2023-04-06T01:14:47;17.80;46.20
17080;DHT22;8655;57.106;-2.088;2023-04-06T01:17:13;17.80;46.20
17080;DHT22;8655;57.106;-2.088;2023-04-06T01:19:39;17.80;46.20
17080;DHT22;8655;57.106;-2.088;2023-04-06T01:22:06;17.80;46.20
17080;DHT22;8655;57.106;-2.088;2023-04-06T01:24:32;17.70;46.10
17080;DHT22;8655;57.106;-2.088;2023-04-06T01:26:58;17.70;46.10
17080;DHT22;8655;57.106;-2.088;2023-04-06T01:29:24;17.70;46.10
17080;DHT22;8655;57.106;-2.088;2023-04-06T01:31:50;17.80;46.20
17080;DHT22;8655;57.106;-2.088;2023-04-06T01:34:16;17.70;46.10
17080;DHT22;8655;57.106;-2.088;2023-04-06T01:36:42;17.70;46.10
17080;DHT22;8655;57.106;-2.088;2023-04-06T01:39:08;17.70;46.10
17080;DHT22;8655;57.106;-2.088;2023-04-06T01:41:33;17.70;46.10
17080;DHT22;8655;57.106;-2.088;2023-04-06T01:43:59;17.70;46.10
17080;DHT22;8655;57.106;-2.088;2023-04-06T01:46:25;17.70;46.10
17080;DHT22;8655;57.106;-2.088;2023-04-06T01:48:51;17.70;46.10
17080;DHT22;8655;57.106;-2.088;2023-04-06T01:51:17;17.70;46.10
17080;DHT22;8655;57.106;-2.088;2023-04-06T01:53:43;17.70;46.10
17080;DHT22;8655;57.106;-2.088;2023-04-06T01:56:08;17.70;46.10
17080;DHT22;8655;57.106;-2.088;2023-04-06T01:58:34;17.70;46.10
17080;DHT22;8655;57.106;-2.088;2023-04-06T02:01:00;17.70;46.10
17080;DHT22;8655;57.106;-2.088;2023-04-06T02:03:26;17.70;46.10
17080;DHT22;8655;57.106;-2.088;2023-04-06T02:05:52;17.70;46.10
17080;DHT22;8655;57.106;-2.088;2023-04-06T02:08:17;17.70;46.10
17080;DHT22;8655;57.106;-2.088;2023-04-06T02:10:43;17.70;46.10
17080;DHT22;8655;57.106;-2.088;2023-04-06T02:13:09;17.70;46.10
17080;DHT22;8655;57.106;-2.088;2023-04-06T02:15:34;17.70;46.10
17080;DHT22;8655;57.106;-2.088;2023-04-06T02:18:00;17.60;46.00
17080;DHT22;8655;57.106;-2.088;2023-04-06T02:20:26;17.60;46.00
17080;DHT22;8655;57.106;-2.088;2023-04-06T02:22:51;17.60;46.00
17080;DHT22;8655;57.106;-2.088;2023-04-06T02:25:17;17.60;46.10
17080;DHT22;8655;57.106;-2.088;2023-04-06T02:27:43;17.60;46.00
17080;DHT22;8655;57.106;-2.088;2023-04-06T02:30:09;17.60;46.10
17080;DHT22;8655;57.106;-2.088;2023-04-06T02:32:35;17.60;46.00
17080;DHT22;8655;57.106;-2.088;2023-04-06T02:35:00;17.60;46.00
17080;DHT22;8655;57.106;-2.088;2023-04-06T02:37:26;17.70;46.10
17080;DHT22;8655;57.106;-2.088;2023-04-06T02:39:52;17.60;46.00
17080;DHT22;8655;57.106;-2.088;2023-04-06T02:42:18;17.60;46.00
17080;DHT22;8655;57.106;-2.088;2023-04-06T02:44:43;17.60;46.00
17080;DHT22;8655;57.106;-2.088;2023-04-06T02:47:09;17.60;46.10
17080;DHT22;8655;57.106;-2.088;2023-04-06T02:49:36;17.60;46.00
17080;DHT22;8655;57.106;-2.088;2023-04-06T02:52:02;17.60;46.10
17080;DHT22;8655;57.106;-2.088;2023-04-06T02:54:28;17.60;46.00
17080;DHT22;8655;57.106;-2.088;2023-04-06T02:56:53;17.60;46.10
17080;DHT22;8655;57.106;-2.088;2023-04-06T02:59:19;17.60;46.10
17080;DHT22;8655;57.106;-2.088;2023-04-06T03:01:45;17.60;46.10
17080;DHT22;8655;57.106;-2.088;2023-04-06T03:04:11;17.60;46.10
17080;DHT22;8655;57.106;-2.088;2023-04-06T03:06:37;17.60;46.10
17080;DHT22;8655;57.106;-2.088;2023-04-06T03:09:03;17.60;46.10
17080;DHT22;8655;57.106;-2.088;2023-04-06T03:11:28;17.60;46.10
17080;DHT22;8655;57.106;-2.088;2023-04-06T03:13:54;17.60;46.10
17080;DHT22;8655;57.106;-2.088;2023-04-06T03:16:20;17.60;46.10
17080;DHT22;8655;57.106;-2.088;2023-04-06T03:18:46;17.60;46.10
17080;DHT22;8655;57.106;-2.088;2023-04-06T03:21:15;17.50;46.00
17080;DHT22;8655;57.106;-2.088;2023-04-06T03:23:41;17.60;46.10
17080;DHT22;8655;57.106;-2.088;2023-04-06T03:26:07;17.50;46.00
17080;DHT22;8655;57.106;-2.088;2023-04-06T03:28:33;17.50;46.00
17080;DHT22;8655;57.106;-2.088;2023-04-06T03:30:59;17.50;46.00
17080;DHT22;8655;57.106;-2.088;2023-04-06T03:33:24;17.50;46.00
17080;DHT22;8655;57.106;-2.088;2023-04-06T03:35:53;17.50;46.00
17080;DHT22;8655;57.106;-2.088;2023-04-06T03:38:19;17.50;46.00
17080;DHT22;8655;57.106;-2.088;2023-04-06T03:40:44;17.50;46.10
17080;DHT22;8655;57.106;-2.088;2023-04-06T03:43:10;17.60;46.10
17080;DHT22;8655;57.106;-2.088;2023-04-06T03:45:36;17.50;46.10
17080;DHT22;8655;57.106;-2.088;2023-04-06T03:48:02;17.50;46.10
17080;DHT22;8655;57.106;-2.088;2023-04-06T03:50:27;17.50;46.10
17080;DHT22;8655;57.106;-2.088;2023-04-06T03:52:53;17.50;46.10
17080;DHT22;8655;57.106;-2.088;2023-04-06T03:55:19;17.50;46.10
17080;DHT22;8655;57.106;-2.088;2023-04-06T03:57:44;17.50;46.60
17080;DHT22;8655;57.106;-2.088;2023-04-06T04:00:11;17.50;46.10
17080;DHT22;8655;57.106;-2.088;2023-04-06T04:02:37;17.50;46.10
17080;DHT22;8655;57.106;-2.088;2023-04-06T04:05:03;17.50;46.10
17080;DHT22;8655;57.106;-2.088;2023-04-06T04:07:29;17.50;46.10
17080;DHT22;8655;57.106;-2.088;2023-04-06T04:09:54;17.50;46.10
17080;DHT22;8655;57.106;-2.088;2023-04-06T04:12:20;17.50;46.10
17080;DHT22;8655;57.106;-2.088;2023-04-06T04:14:45;17.50;46.10
17080;DHT22;8655;57.106;-2.088;2023-04-06T04:17:11;17.50;46.10
17080;DHT22;8655;57.106;-2.088;2023-04-06T04:19:37;17.50;46.10
17080;DHT22;8655;57.106;-2.088;2023-04-06T04:22:02;17.50;46.10
17080;DHT22;8655;57.106;-2.088;2023-04-06T04:24:31;17.50;46.10
17080;DHT22;8655;57.106;-2.088;2023-04-06T04:26:57;17.50;46.10
17080;DHT22;8655;57.106;-2.088;2023-04-06T04:29:23;17.50;46.10
17080;DHT22;8655;57.106;-2.088;2023-04-06T04:31:49;17.40;46.00
17080;DHT22;8655;57.106;-2.088;2023-04-06T04:34:15;17.40;46.00
17080;DHT22;8655;57.106;-2.088;2023-04-06T04:36:41;17.40;46.10
17080;DHT22;8655;57.106;-2.088;2023-04-06T04:39:10;17.40;46.10
17080;DHT22;8655;57.106;-2.088;2023-04-06T04:41:36;17.40;46.10
17080;DHT22;8655;57.106;-2.088;2023-04-06T04:44:02;17.50;46.10
17080;DHT22;8655;57.106;-2.088;2023-04-06T04:46:27;17.40;46.10
17080;DHT22;8655;57.106;-2.088;2023-04-06T04:48:53;17.40;46.10
17080;DHT22;8655;57.106;-2.088;2023-04-06T04:51:19;17.40;46.10
17080;DHT22;8655;57.106;-2.088;2023-04-06T04:53:45;17.40;46.10
17080;DHT22;8655;57.106;-2.088;2023-04-06T04:56:11;17.40;46.10
17080;DHT22;8655;57.106;-2.088;2023-04-06T04:58:36;17.40;46.10
17080;DHT22;8655;57.106;-2.088;2023-04-06T05:01:02;17.40;46.10
17080;DHT22;8655;57.106;-2.088;2023-04-06T05:03:28;17.40;46.10
17080;DHT22;8655;57.106;-2.088;2023-04-06T05:05:53;17.40;46.10
17080;DHT22;8655;57.106;-2.088;2023-04-06T05:08:20;17.40;46.10
17080;DHT22;8655;57.106;-2.088;2023-04-06T05:10:45;17.40;46.10
17080;DHT22;8655;57.106;-2.088;2023-04-06T05:13:12;17.40;46.10
17080;DHT22;8655;57.106;-2.088;2023-04-06T05:15:37;17.40;46.10
17080;DHT22;8655;57.106;-2.088;2023-04-06T05:18:07;17.40;46.10
17080;DHT22;8655;57.106;-2.088;2023-04-06T05:20:34;17.40;46.10
17080;DHT22;8655;57.106;-2.088;2023-04-06T05:23:00;17.40;46.10
17080;DHT22;8655;57.106;-2.088;2023-04-06T05:25:25;17.40;46.10
17080;DHT22;8655;57.106;-2.088;2023-04-06T05:27:51;17.40;46.10
17080;DHT22;8655;57.106;-2.088;2023-04-06T05:30:17;17.40;46.10
17080;DHT22;8655;57.106;-2.088;2023-04-06T05:32:43;17.40;46.10
17080;DHT22;8655;57.106;-2.088;2023-04-06T05:35:10;17.40;46.10
17080;DHT22;8655;57.106;-2.088;2023-04-06T05:37:36;17.40;46.10
17080;DHT22;8655;57.106;-2.088;2023-04-06T05:40:02;17.40;46.20
17080;DHT22;8655;57.106;-2.088;2023-04-06T05:42:28;17.40;46.20
17080;DHT22;8655;57.106;-2.088;2023-04-06T05:45:02;17.40;46.30
17080;DHT22;8655;57.106;-2.088;2023-04-06T05:47:27;17.40;46.30
17080;DHT22;8655;57.106;-2.088;2023-04-06T05:49:53;17.40;46.30
17080;DHT22;8655;57.106;-2.088;2023-04-06T05:52:19;17.50;46.40
17080;DHT22;8655;57.106;-2.088;2023-04-06T05:54:44;17.50;46.40
17080;DHT22;8655;57.106;-2.088;2023-04-06T05:57:10;17.50;46.40
17080;DHT22;8655;57.106;-2.088;2023-04-06T05:59:36;17.60;46.50
17080;DHT22;8655;57.106;-2.088;2023-04-06T06:02:01;17.60;46.50
17080;DHT22;8655;57.106;-2.088;2023-04-06T06:04:27;17.70;46.60
17080;DHT22;8655;57.106;-2.088;2023-04-06T06:06:53;17.80;46.60
17080;DHT22;8655;57.106;-2.088;2023-04-06T06:09:18;17.80;46.60
17080;DHT22;8655;57.106;-2.088;2023-04-06T06:11:44;17.90;46.70
17080;DHT22;8655;57.106;-2.088;2023-04-06T06:14:10;17.90;46.70
17080;DHT22;8655;57.106;-2.088;2023-04-06T06:16:35;17.90;46.70
17080;DHT22;8655;57.106;-2.088;2023-04-06T06:19:01;18.00;46.80
17080;DHT22;8655;57.106;-2.088;2023-04-06T06:21:27;18.00;46.70
17080;DHT22;8655;57.106;-2.088;2023-04-06T06:23:53;18.10;46.80
17080;DHT22;8655;57.106;-2.088;2023-04-06T06:26:19;18.10;46.80
17080;DHT22;8655;57.106;-2.088;2023-04-06T06:28:45;18.20;46.90
17080;DHT22;8655;57.106;-2.088;2023-04-06T06:31:11;18.20;46.90
17080;DHT22;8655;57.106;-2.088;2023-04-06T06:33:37;18.30;46.90
17080;DHT22;8655;57.106;-2.088;2023-04-06T06:36:03;18.30;47.00
17080;DHT22;8655;57.106;-2.088;2023-04-06T06:38:29;18.40;47.00
17080;DHT22;8655;57.106;-2.088;2023-04-06T06:40:54;18.50;47.10
17080;DHT22;8655;57.106;-2.088;2023-04-06T06:43:20;18.50;47.10
17080;DHT22;8655;57.106;-2.088;2023-04-06T06:45:46;18.50;47.00
17080;DHT22;8655;57.106;-2.088;2023-04-06T06:48:12;18.60;47.10
17080;DHT22;8655;57.106;-2.088;2023-04-06T06:50:38;18.60;47.10
17080;DHT22;8655;57.106;-2.088;2023-04-06T06:53:04;18.70;47.20
17080;DHT22;8655;57.106;-2.088;2023-04-06T06:55:29;18.70;47.20
17080;DHT22;8655;57.106;-2.088;2023-04-06T06:57:55;18.70;47.20
17080;DHT22;8655;57.106;-2.088;2023-04-06T07:00:21;18.70;47.20
17080;DHT22;8655;57.106;-2.088;2023-04-06T07:02:50;18.80;47.20
17080;DHT22;8655;57.106;-2.088;2023-04-06T07:05:16;18.80;47.20
17080;DHT22;8655;57.106;-2.088;2023-04-06T07:07:41;18.80;47.20
17080;DHT22;8655;57.106;-2.088;2023-04-06T07:10:08;18.80;47.20
17080;DHT22;8655;57.106;-2.088;2023-04-06T07:12:34;18.80;47.20
17080;DHT22;8655;57.106;-2.088;2023-04-06T07:15:00;19.00;47.40
17080;DHT22;8655;57.106;-2.088;2023-04-06T07:17:26;18.90;47.40
17080;DHT22;8655;57.106;-2.088;2023-04-06T07:19:51;18.90;47.30
17080;DHT22;8655;57.106;-2.088;2023-04-06T07:22:17;18.90;47.30
17080;DHT22;8655;57.106;-2.088;2023-04-06T07:24:42;18.90;47.40
17080;DHT22;8655;57.106;-2.088;2023-04-06T07:27:08;18.90;47.40
17080;DHT22;8655;57.106;-2.088;2023-04-06T07:29:34;18.90;47.40
17080;DHT22;8655;57.106;-2.088;2023-04-06T07:32:00;18.90;47.40
17080;DHT22;8655;57.106;-2.088;2023-04-06T07:34:25;18.90;47.40
17080;DHT22;8655;57.106;-2.088;2023-04-06T07:36:51;18.90;47.40
17080;DHT22;8655;57.106;-2.088;2023-04-06T07:39:19;18.90;47.40
17080;DHT22;8655;57.106;-2.088;2023-04-06T07:41:44;18.90;47.40
17080;DHT22;8655;57.106;-2.088;2023-04-06T07:44:10;18.80;47.30
17080;DHT22;8655;57.106;-2.088;2023-04-06T07:46:36;18.80;47.30
17080;DHT22;8655;57.106;-2.088;2023-04-06T07:49:02;18.80;47.30
17080;DHT22;8655;57.106;-2.088;2023-04-06T07:51:28;18.80;47.30
17080;DHT22;8655;57.106;-2.088;2023-04-06T07:53:53;18.80;47.30
17080;DHT22;8655;57.106;-2.088;2023-04-06T07:56:19;18.80;47.30
17080;DHT22;8655;57.106;-2.088;2023-04-06T07:58:46;18.80;47.40
17080;DHT22;8655;57.106;-2.088;2023-04-06T08:01:12;18.80;47.40
17080;DHT22;8655;57.106;-2.088;2023-04-06T08:03:38;18.80;47.30
17080;DHT22;8655;57.106;-2.088;2023-04-06T08:06:04;18.80;47.40
17080;DHT22;8655;57.106;-2.088;2023-04-06T08:08:31;18.70;47.30
17080;DHT22;8655;57.106;-2.088;2023-04-06T08:10:56;18.70;47.40
17080;DHT22;8655;57.106;-2.088;2023-04-06T08:13:22;18.70;47.30
17080;DHT22;8655;57.106;-2.088;2023-04-06T08:15:48;18.70;47.30
17080;DHT22;8655;57.106;-2.088;2023-04-06T08:18:14;18.70;47.30
17080;DHT22;8655;57.106;-2.088;2023-04-06T08:20:39;18.70;47.30
17080;DHT22;8655;57.106;-2.088;2023-04-06T08:23:05;18.70;47.30
17080;DHT22;8655;57.106;-2.088;2023-04-06T08:25:33;18.70;47.30
17080;DHT22;8655;57.106;-2.088;2023-04-06T08:28:00;18.70;47.40
17080;DHT22;8655;57.106;-2.088;2023-04-06T08:30:26;18.70;47.40
17080;DHT22;8655;57.106;-2.088;2023-04-06T08:32:52;18.70;47.30
17080;DHT22;8655;57.106;-2.088;2023-04-06T08:35:17;18.60;47.30
17080;DHT22;8655;57.106;-2.088;2023-04-06T08:37:43;18.60;47.20
17080;DHT22;8655;57.106;-2.088;2023-04-06T08:40:09;18.60;47.30
17080;DHT22;8655;57.106;-2.088;2023-04-06T08:42:40;18.60;47.30
17080;DHT22;8655;57.106;-2.088;2023-04-06T08:45:09;18.60;47.30
17080;DHT22;8655;57.106;-2.088;2023-04-06T08:47:36;18.60;47.30
17080;DHT22;8655;57.106;-2.088;2023-04-06T08:50:04;18.60;47.30
17080;DHT22;8655;57.106;-2.088;2023-04-06T08:52:31;18.60;47.30
17080;DHT22;8655;57.106;-2.088;2023-04-06T08:54:57;18.60;47.30
17080;DHT22;8655;57.106;-2.088;2023-04-06T08:57:24;18.60;47.30
17080;DHT22;8655;57.106;-2.088;2023-04-06T08:59:50;18.50;47.20
17080;DHT22;8655;57.106;-2.088;2023-04-06T09:02:18;18.50;47.20
17080;DHT22;8655;57.106;-2.088;2023-04-06T09:04:48;18.50;47.20
17080;DHT22;8655;57.106;-2.088;2023-04-06T09:07:15;18.50;47.20
17080;DHT22;8655;57.106;-2.088;2023-04-06T09:09:41;18.50;47.20
17080;DHT22;8655;57.106;-2.088;2023-04-06T09:12:25;18.50;47.20
17080;DHT22;8655;57.106;-2.088;2023-04-06T09:14:52;18.50;47.20
17080;DHT22;8655;57.106;-2.088;2023-04-06T09:17:25;18.50;47.20
17080;DHT22;8655;57.106;-2.088;2023-04-06T09:19:51;18.50;47.20
17080;DHT22;8655;57.106;-2.088;2023-04-06T09:22:18;18.50;47.20
17080;DHT22;8655;57.106;-2.088;2023-04-06T09:24:53;18.50;47.20
17080;DHT22;8655;57.106;-2.088;2023-04-06T09:27:34;18.50;47.80
17080;DHT22;8655;57.106;-2.088;2023-04-06T09:32:43;18.40;47.20
17080;DHT22;8655;57.106;-2.088;2023-04-06T09:35:09;18.40;47.20
17080;DHT22;8655;57.106;-2.088;2023-04-06T09:37:35;18.40;47.20
17080;DHT22;8655;57.106;-2.088;2023-04-06T09:40:05;18.40;47.20
17080;DHT22;8655;57.106;-2.088;2023-04-06T09:42:31;18.40;47.20
17080;DHT22;8655;57.106;-2.088;2023-04-06T09:44:57;18.40;47.20
17080;DHT22;8655;57.106;-2.088;2023-04-06T09:47:24;18.40;47.20
17080;DHT22;8655;57.106;-2.088;2023-04-06T09:49:56;18.40;47.20
17080;DHT22;8655;57.106;-2.088;2023-04-06T09:52:31;18.40;47.20
17080;DHT22;8655;57.106;-2.088;2023-04-06T09:55:02;18.40;47.20
17080;DHT22;8655;57.106;-2.088;2023-04-06T09:57:43;18.40;47.20
17080;DHT22;8655;57.106;-2.088;2023-04-06T10:00:13;18.40;47.20
17080;DHT22;8655;57.106;-2.088;2023-04-06T10:05:43;18.30;47.10
17080;DHT22;8655;57.106;-2.088;2023-04-06T10:08:12;18.30;47.10
17080;DHT22;8655;57.106;-2.088;2023-04-06T10:10:38;18.30;47.20
17080;DHT22;8655;57.106;-2.088;2023-04-06T10:13:05;18.30;47.10
17080;DHT22;8655;57.106;-2.088;2023-04-06T10:15:31;18.30;47.80
17080;DHT22;8655;57.106;-2.088;2023-04-06T10:17:58;18.30;47.20
17080;DHT22;8655;57.106;-2.088;2023-04-06T10:20:42;18.30;47.20
17080;DHT22;8655;57.106;-2.088;2023-04-06T10:25:56;18.30;47.20
17080;DHT22;8655;57.106;-2.088;2023-04-06T10:28:23;18.30;47.20
17080;DHT22;8655;57.106;-2.088;2023-04-06T10:30:56;18.30;47.20
17080;DHT22;8655;57.106;-2.088;2023-04-06T10:33:22;18.30;47.20
17080;DHT22;8655;57.106;-2.088;2023-04-06T10:35:48;18.30;47.20
17080;DHT22;8655;57.106;-2.088;2023-04-06T10:38:14;18.30;47.20
17080;DHT22;8655;57.106;-2.088;2023-04-06T10:40:41;18.30;47.20
17080;DHT22;8655;57.106;-2.088;2023-04-06T10:43:13;18.30;47.20
17080;DHT22;8655;57.106;-2.088;2023-04-06T10:45:40;18.20;47.10
17080;DHT22;8655;57.106;-2.088;2023-04-06T10:48:16;18.20;47.10
17080;DHT22;8655;57.106;-2.088;2023-04-06T10:50:48;18.20;47.10
17080;DHT22;8655;57.106;-2.088;2023-04-06T10:53:25;18.20;47.10
17080;DHT22;8655;57.106;-2.088;2023-04-06T10:55:52;18.20;47.10
17080;DHT22;8655;57.106;-2.088;2023-04-06T10:58:19;18.20;47.10
17080;DHT22;8655;57.106;-2.088;2023-04-06T11:00:46;18.20;47.70
17080;DHT22;8655;57.106;-2.088;2023-04-06T11:03:12;18.20;47.10
17080;DHT22;8655;57.106;-2.088;2023-04-06T11:05:38;18.20;47.10
17080;DHT22;8655;57.106;-2.088;2023-04-06T11:08:04;18.20;47.10
17080;DHT22;8655;57.106;-2.088;2023-04-06T11:10:30;18.20;47.10
17080;DHT22;8655;57.106;-2.088;2023-04-06T11:12:56;18.20;47.10
17080;DHT22;8655;57.106;-2.088;2023-04-06T11:15:22;18.20;47.10
17080;DHT22;8655;57.106;-2.088;2023-04-06T11:17:47;18.20;47.10
17080;DHT22;8655;57.106;-2.088;2023-04-06T11:20:14;18.20;47.10
17080;DHT22;8655;57.106;-2.088;2023-04-06T11:22:52;18.20;47.20
17080;DHT22;8655;57.106;-2.088;2023-04-06T11:25:18;18.20;47.20
17080;DHT22;8655;57.106;-2.088;2023-04-06T11:27:46;18.20;47.10
17080;DHT22;8655;57.106;-2.088;2023-04-06T11:30:12;18.20;47.10
17080;DHT22;8655;57.106;-2.088;2023-04-06T11:32:42;18.20;47.10
17080;DHT22;8655;57.106;-2.088;2023-04-06T11:35:26;18.10;47.10
17080;DHT22;8655;57.106;-2.088;2023-04-06T11:37:52;18.10;47.00
17080;DHT22;8655;57.106;-2.088;2023-04-06T11:40:24;18.10;47.00
17080;DHT22;8655;57.106;-2.088;2023-04-06T11:42:59;18.10;47.10
17080;DHT22;8655;57.106;-2.088;2023-04-06T11:45:24;18.10;47.00
17080;DHT22;8655;57.106;-2.088;2023-04-06T11:47:58;18.10;47.00
17080;DHT22;8655;57.106;-2.088;2023-04-06T11:50:25;18.10;47.10
17080;DHT22;8655;57.106;-2.088;2023-04-06T11:53:01;18.10;47.10
17080;DHT22;8655;57.106;-2.088;2023-04-06T11:55:27;18.10;47.10
17080;DHT22;8655;57.106;-2.088;2023-04-06T11:57:52;18.10;47.10
17080;DHT22;8655;57.106;-2.088;2023-04-06T12:00:19;18.10;47.10
17080;DHT22;8655;57.106;-2.088;2023-04-06T12:02:47;18.10;47.10
17080;DHT22;8655;57.106;-2.088;2023-04-06T12:05:13;18.10;47.10
17080;DHT22;8655;57.106;-2.088;2023-04-06T12:07:39;18.10;47.10
17080;DHT22;8655;57.106;-2.088;2023-04-06T12:10:05;18.10;47.10
17080;DHT22;8655;57.106;-2.088;2023-04-06T12:12:31;18.10;47.10
17080;DHT22;8655;57.106;-2.088;2023-04-06T12:14:56;18.10;47.10
17080;DHT22;8655;57.106;-2.088;2023-04-06T12:17:22;18.10;47.10
17080;DHT22;8655;57.106;-2.088;2023-04-06T12:19:48;18.10;47.10
17080;DHT22;8655;57.106;-2.088;2023-04-06T12:22:14;18.10;47.10
17080;DHT22;8655;57.106;-2.088;2023-04-06T12:24:40;18.10;47.10
17080;DHT22;8655;57.106;-2.088;2023-04-06T12:27:06;18.10;47.10
17080;DHT22;8655;57.106;-2.088;2023-04-06T12:29:32;18.00;47.00
17080;DHT22;8655;57.106;-2.088;2023-04-06T12:31:58;18.10;47.10
17080;DHT22;8655;57.106;-2.088;2023-04-06T12:34:23;18.00;47.00
17080;DHT22;8655;57.106;-2.088;2023-04-06T12:36:49;18.10;47.10
17080;DHT22;8655;57.106;-2.088;2023-04-06T12:39:15;18.00;47.00
17080;DHT22;8655;57.106;-2.088;2023-04-06T12:41:42;18.00;47.00
17080;DHT22;8655;57.106;-2.088;2023-04-06T12:44:07;18.10;47.10
17080;DHT22;8655;57.106;-2.088;2023-04-06T12:46:33;18.00;47.10
17080;DHT22;8655;57.106;-2.088;2023-04-06T12:48:59;18.00;47.00
17080;DHT22;8655;57.106;-2.088;2023-04-06T12:51:28;18.00;47.00
17080;DHT22;8655;57.106;-2.088;2023-04-06T12:53:54;18.00;47.10
17080;DHT22;8655;57.106;-2.088;2023-04-06T12:56:20;18.00;47.00
17080;DHT22;8655;57.106;-2.088;2023-04-06T12:58:48;18.00;47.00
17080;DHT22;8655;57.106;-2.088;2023-04-06T13:01:14;18.10;47.10
17080;DHT22;8655;57.106;-2.088;2023-04-06T13:03:42;18.00;47.00
17080;DHT22;8655;57.106;-2.088;2023-04-06T13:06:08;18.00;47.00
17080;DHT22;8655;57.106;-2.088;2023-04-06T13:08:35;18.00;47.00
17080;DHT22;8655;57.106;-2.088;2023-04-06T13:11:02;18.00;47.10
17080;DHT22;8655;57.106;-2.088;2023-04-06T13:13:29;18.00;47.10
17080;DHT22;8655;57.106;-2.088;2023-04-06T13:16:06;18.00;47.10
17080;DHT22;8655;57.106;-2.088;2023-04-06T13:18:32;18.00;47.10
17080;DHT22;8655;57.106;-2.088;2023-04-06T13:20:58;18.00;47.10
17080;DHT22;8655;57.106;-2.088;2023-04-06T13:23:25;18.00;47.10
17080;DHT22;8655;57.106;-2.088;2023-04-06T13:26:04;18.00;47.10
17080;DHT22;8655;57.106;-2.088;2023-04-06T13:28:31;18.00;47.10
17080;DHT22;8655;57.106;-2.088;2023-04-06T13:30:59;18.00;47.10
17080;DHT22;8655;57.106;-2.088;2023-04-06T13:33:26;18.00;47.10
17080;DHT22;8655;57.106;-2.088;2023-04-06T13:35:52;18.00;47.10
17080;DHT22;8655;57.106;-2.088;2023-04-06T13:38:17;17.90;47.00
17080;DHT22;8655;57.106;-2.088;2023-04-06T13:40:43;17.90;47.00
17080;DHT22;8655;57.106;-2.088;2023-04-06T13:43:09;17.90;47.00
17080;DHT22;8655;57.106;-2.088;2023-04-06T13:45:35;17.90;47.00
17080;DHT22;8655;57.106;-2.088;2023-04-06T13:48:01;17.90;47.00
17080;DHT22;8655;57.106;-2.088;2023-04-06T13:50:27;17.90;47.00
17080;DHT22;8655;57.106;-2.088;2023-04-06T13:52:53;17.90;47.00
17080;DHT22;8655;57.106;-2.088;2023-04-06T13:55:18;17.90;47.00
17080;DHT22;8655;57.106;-2.088;2023-04-06T13:57:44;17.90;47.00
17080;DHT22;8655;57.106;-2.088;2023-04-06T14:00:10;17.90;47.10
17080;DHT22;8655;57.106;-2.088;2023-04-06T14:02:38;17.90;47.00
17080;DHT22;8655;57.106;-2.088;2023-04-06T14:05:05;17.90;47.00
17080;DHT22;8655;57.106;-2.088;2023-04-06T14:07:31;17.90;47.00
17080;DHT22;8655;57.106;-2.088;2023-04-06T14:09:56;17.90;47.70
17080;DHT22;8655;57.106;-2.088;2023-04-06T14:12:22;17.90;47.00
17080;DHT22;8655;57.106;-2.088;2023-04-06T14:14:47;17.90;47.00
17080;DHT22;8655;57.106;-2.088;2023-04-06T14:17:13;17.90;47.00
17080;DHT22;8655;57.106;-2.088;2023-04-06T14:19:39;17.90;47.00
17080;DHT22;8655;57.106;-2.088;2023-04-06T14:22:05;17.90;47.00
17080;DHT22;8655;57.106;-2.088;2023-04-06T14:24:31;17.90;47.10
17080;DHT22;8655;57.106;-2.088;2023-04-06T14:26:57;17.90;47.10
17080;DHT22;8655;57.106;-2.088;2023-04-06T14:29:23;17.90;47.10
17080;DHT22;8655;57.106;-2.088;2023-04-06T14:31:48;17.90;47.10
17080;DHT22;8655;57.106;-2.088;2023-04-06T14:34:14;17.90;47.10
17080;DHT22;8655;57.106;-2.088;2023-04-06T14:36:42;17.90;47.10
17080;DHT22;8655;57.106;-2.088;2023-04-06T14:39:08;17.90;47.10
17080;DHT22;8655;57.106;-2.088;2023-04-06T14:41:34;17.90;47.10
17080;DHT22;8655;57.106;-2.088;2023-04-06T14:44:00;17.90;47.10
17080;DHT22;8655;57.106;-2.088;2023-04-06T14:46:27;17.90;47.10
17080;DHT22;8655;57.106;-2.088;2023-04-06T14:48:56;17.90;47.10
17080;DHT22;8655;57.106;-2.088;2023-04-06T14:51:26;17.90;47.10
17080;DHT22;8655;57.106;-2.088;2023-04-06T14:53:53;17.90;47.20
17080;DHT22;8655;57.106;-2.088;2023-04-06T14:56:23;17.90;47.20
17080;DHT22;8655;57.106;-2.088;2023-04-06T14:58:52;17.90;47.20
17080;DHT22;8655;57.106;-2.088;2023-04-06T15:01:20;17.90;47.70
17080;DHT22;8655;57.106;-2.088;2023-04-06T15:03:46;17.90;47.20
17080;DHT22;8655;57.106;-2.088;2023-04-06T15:06:13;17.90;47.20
17080;DHT22;8655;57.106;-2.088;2023-04-06T15:08:41;17.90;47.20
17080;DHT22;8655;57.106;-2.088;2023-04-06T15:11:07;17.80;47.10
17080;DHT22;8655;57.106;-2.088;2023-04-06T15:13:33;17.90;47.20
17080;DHT22;8655;57.106;-2.088;2023-04-06T15:15:58;17.90;47.70
17080;DHT22;8655;57.106;-2.088;2023-04-06T15:18:24;17.90;47.20
17080;DHT22;8655;57.106;-2.088;2023-04-06T15:20:50;17.80;47.10
17080;DHT22;8655;57.106;-2.088;2023-04-06T15:23:16;17.80;47.10
17080;DHT22;8655;57.106;-2.088;2023-04-06T15:25:41;17.80;47.10
17080;DHT22;8655;57.106;-2.088;2023-04-06T15:28:07;17.90;47.20
17080;DHT22;8655;57.106;-2.088;2023-04-06T15:30:36;17.80;47.10
17080;DHT22;8655;57.106;-2.088;2023-04-06T15:33:07;17.80;47.10
17080;DHT22;8655;57.106;-2.088;2023-04-06T15:35:33;17.80;47.10